sensor_id;sensor_type;location;lat;lon;timestamp;P1;durP1;ratioP1;P2;durP2;ratioP2
16775;SDS011;8505;49.456;8.164;2023-07-02T00:00:04;3.97;;;2.20;;
16775;SDS011;8505;49.456;8.164;2023-07-02T00:02:34;3.83;;;2.23;;
16775;SDS011;8505;49.456;8.164;2023-07-02T00:05:02;3.20;;;2.20;;
16775;SDS011;8505;49.456;8.164;2023-07-02T00:07:30;5.93;;;2.20;;
16775;SDS011;8505;49.456;8.164;2023-07-02T00:09:58;4.70;;;2.47;;
16775;SDS011;8505;49.456;8.164;2023-07-02T00:12:25;2.90;;;2.00;;
16775;SDS011;8505;49.456;8.164;2023-07-02T00:14:53;4.20;;;2.20;;
16775;SDS011;8505;49.456;8.164;2023-07-02T00:17:21;3.95;;;2.28;;
16775;SDS011;8505;49.456;8.164;2023-07-02T00:19:50;4.45;;;2.20;;
16775;SDS011;8505;49.456;8.164;2023-07-02T00:22:18;4.43;;;2.30;;
16775;SDS011;8505;49.456;8.164;2023-07-02T00:24:47;3.75;;;2.25;;
16775;SDS011;8505;49.456;8.164;2023-07-02T00:27:16;4.18;;;2.22;;
16775;SDS011;8505;49.456;8.164;2023-07-02T00:29:44;4.78;;;2.20;;
16775;SDS011;8505;49.456;8.164;2023-07-02T00:32:12;3.83;;;2.30;;
16775;SDS011;8505;49.456;8.164;2023-07-02T00:34:40;4.03;;;2.50;;
16775;SDS011;8505;49.456;8.164;2023-07-02T00:37:09;5.05;;;2.67;;
16775;SDS011;8505;49.456;8.164;2023-07-02T00:39:37;4.80;;;2.47;;
16775;SDS011;8505;49.456;8.164;2023-07-02T00:42:04;3.75;;;2.50;;
16775;SDS011;8505;49.456;8.164;2023-07-02T00:44:32;5.35;;;2.53;;
16775;SDS011;8505;49.456;8.164;2023-07-02T00:47:00;6.35;;;2.50;;
16775;SDS011;8505;49.456;8.164;2023-07-02T00:49:28;4.33;;;2.37;;
16775;SDS011;8505;49.456;8.164;2023-07-02T00:51:55;5.20;;;2.42;;
16775;SDS011;8505;49.456;8.164;2023-07-02T00:54:25;5.55;;;2.55;;
16775;SDS011;8505;49.456;8.164;2023-07-02T00:56:55;5.78;;;2.60;;
16775;SDS011;8505;49.456;8.164;2023-07-02T00:59:23;5.10;;;2.53;;
16775;SDS011;8505;49.456;8.164;2023-07-02T01:01:51;4.10;;;2.70;;
16775;SDS011;8505;49.456;8.164;2023-07-02T01:04:19;4.25;;;2.25;;
16775;SDS011;8505;49.456;8.164;2023-07-02T01:06:53;3.40;;;2.15;;
16775;SDS011;8505;49.456;8.164;2023-07-02T01:09:25;4.70;;;2.50;;
16775;SDS011;8505;49.456;8.164;2023-07-02T01:11:54;3.75;;;2.33;;
16775;SDS011;8505;49.456;8.164;2023-07-02T01:14:24;4.18;;;2.38;;
16775;SDS011;8505;49.456;8.164;2023-07-02T01:16:54;4.72;;;2.30;;
16775;SDS011;8505;49.456;8.164;2023-07-02T01:19:29;5.55;;;2.40;;
16775;SDS011;8505;49.456;8.164;2023-07-02T01:22:06;3.97;;;2.40;;
16775;SDS011;8505;49.456;8.164;2023-07-02T01:24:35;4.07;;;2.33;;
16775;SDS011;8505;49.456;8.164;2023-07-02T01:27:03;3.58;;;2.38;;
16775;SDS011;8505;49.456;8.164;2023-07-02T01:29:31;4.68;;;2.40;;
16775;SDS011;8505;49.456;8.164;2023-07-02T01:32:03;4.93;;;2.30;;
16775;SDS011;8505;49.456;8.164;2023-07-02T01:34:32;4.30;;;2.30;;
16775;SDS011;8505;49.456;8.164;2023-07-02T01:37:01;4.80;;;2.45;;
16775;SDS011;8505;49.456;8.164;2023-07-02T01:39:29;4.63;;;2.60;;
16775;SDS011;8505;49.456;8.164;2023-07-02T01:42:07;6.03;;;2.90;;
16775;SDS011;8505;49.456;8.164;2023-07-02T01:44:36;4.63;;;3.00;;
16775;SDS011;8505;49.456;8.164;2023-07-02T01:47:04;5.90;;;3.00;;
16775;SDS011;8505;49.456;8.164;2023-07-02T01:49:33;5.05;;;2.72;;
16775;SDS011;8505;49.456;8.164;2023-07-02T01:52:01;5.57;;;2.90;;
16775;SDS011;8505;49.456;8.164;2023-07-02T01:54:30;6.20;;;2.58;;
16775;SDS011;8505;49.456;8.164;2023-07-02T01:56:59;4.28;;;2.50;;
16775;SDS011;8505;49.456;8.164;2023-07-02T01:59:27;3.85;;;2.85;;
16775;SDS011;8505;49.456;8.164;2023-07-02T02:01:54;4.85;;;2.50;;
16775;SDS011;8505;49.456;8.164;2023-07-02T02:04:22;3.60;;;2.40;;
16775;SDS011;8505;49.456;8.164;2023-07-02T02:06:52;3.67;;;2.50;;
16775;SDS011;8505;49.456;8.164;2023-07-02T02:09:20;4.47;;;2.58;;
16775;SDS011;8505;49.456;8.164;2023-07-02T02:11:49;6.60;;;2.50;;
16775;SDS011;8505;49.456;8.164;2023-07-02T02:14:18;3.67;;;2.20;;
16775;SDS011;8505;49.456;8.164;2023-07-02T02:16:48;4.35;;;2.53;;
16775;SDS011;8505;49.456;8.164;2023-07-02T02:19:16;4.28;;;2.65;;
16775;SDS011;8505;49.456;8.164;2023-07-02T02:21:44;5.72;;;2.67;;
16775;SDS011;8505;49.456;8.164;2023-07-02T02:24:13;5.60;;;2.90;;
16775;SDS011;8505;49.456;8.164;2023-07-02T02:26:41;5.43;;;2.70;;
16775;SDS011;8505;49.456;8.164;2023-07-02T02:29:08;7.72;;;2.70;;
16775;SDS011;8505;49.456;8.164;2023-07-02T02:31:36;3.97;;;2.45;;
16775;SDS011;8505;49.456;8.164;2023-07-02T02:34:04;6.60;;;2.92;;
16775;SDS011;8505;49.456;8.164;2023-07-02T02:36:32;5.50;;;2.92;;
16775;SDS011;8505;49.456;8.164;2023-07-02T02:38:59;5.15;;;2.63;;
16775;SDS011;8505;49.456;8.164;2023-07-02T02:41:28;6.00;;;2.72;;
16775;SDS011;8505;49.456;8.164;2023-07-02T02:43:56;5.95;;;2.97;;
16775;SDS011;8505;49.456;8.164;2023-07-02T02:46:24;5.78;;;2.95;;
16775;SDS011;8505;49.456;8.164;2023-07-02T02:48:51;5.40;;;3.10;;
16775;SDS011;8505;49.456;8.164;2023-07-02T02:51:19;5.70;;;3.00;;
16775;SDS011;8505;49.456;8.164;2023-07-02T02:53:47;6.20;;;2.90;;
16775;SDS011;8505;49.456;8.164;2023-07-02T02:56:15;7.53;;;3.15;;
16775;SDS011;8505;49.456;8.164;2023-07-02T02:58:45;5.55;;;2.83;;
16775;SDS011;8505;49.456;8.164;2023-07-02T03:01:12;4.72;;;2.88;;
16775;SDS011;8505;49.456;8.164;2023-07-02T03:03:41;8.45;;;3.17;;
16775;SDS011;8505;49.456;8.164;2023-07-02T03:06:12;10.82;;;4.25;;
16775;SDS011;8505;49.456;8.164;2023-07-02T03:08:41;7.00;;;3.30;;
16775;SDS011;8505;49.456;8.164;2023-07-02T03:11:09;9.05;;;3.63;;
16775;SDS011;8505;49.456;8.164;2023-07-02T03:13:37;8.00;;;3.40;;
16775;SDS011;8505;49.456;8.164;2023-07-02T03:16:06;7.25;;;3.65;;
16775;SDS011;8505;49.456;8.164;2023-07-02T03:18:34;7.63;;;3.45;;
16775;SDS011;8505;49.456;8.164;2023-07-02T03:21:02;6.70;;;3.60;;
16775;SDS011;8505;49.456;8.164;2023-07-02T03:23:30;8.25;;;3.78;;
16775;SDS011;8505;49.456;8.164;2023-07-02T03:25:57;9.23;;;3.92;;
16775;SDS011;8505;49.456;8.164;2023-07-02T03:28:25;9.20;;;4.32;;
16775;SDS011;8505;49.456;8.164;2023-07-02T03:30:53;11.85;;;4.68;;
16775;SDS011;8505;49.456;8.164;2023-07-02T03:33:22;9.10;;;4.80;;
16775;SDS011;8505;49.456;8.164;2023-07-02T03:35:50;8.13;;;4.10;;
16775;SDS011;8505;49.456;8.164;2023-07-02T03:38:17;9.20;;;4.03;;
16775;SDS011;8505;49.456;8.164;2023-07-02T03:40:45;6.95;;;3.70;;
16775;SDS011;8505;49.456;8.164;2023-07-02T03:43:13;6.65;;;3.80;;
16775;SDS011;8505;49.456;8.164;2023-07-02T03:45:41;8.68;;;3.95;;
16775;SDS011;8505;49.456;8.164;2023-07-02T03:48:09;8.13;;;4.18;;
16775;SDS011;8505;49.456;8.164;2023-07-02T03:50:38;9.43;;;4.20;;
16775;SDS011;8505;49.456;8.164;2023-07-02T03:53:06;9.20;;;4.50;;
16775;SDS011;8505;49.456;8.164;2023-07-02T03:55:33;8.45;;;4.13;;
16775;SDS011;8505;49.456;8.164;2023-07-02T03:58:01;10.32;;;4.30;;
16775;SDS011;8505;49.456;8.164;2023-07-02T04:00:29;7.80;;;4.32;;
16775;SDS011;8505;49.456;8.164;2023-07-02T04:02:57;8.57;;;4.28;;
16775;SDS011;8505;49.456;8.164;2023-07-02T04:05:25;9.02;;;4.20;;
16775;SDS011;8505;49.456;8.164;2023-07-02T04:07:54;6.93;;;4.10;;
16775;SDS011;8505;49.456;8.164;2023-07-02T04:10:21;8.07;;;4.10;;
16775;SDS011;8505;49.456;8.164;2023-07-02T04:12:49;8.50;;;4.78;;
16775;SDS011;8505;49.456;8.164;2023-07-02T04:15:17;7.57;;;4.50;;
16775;SDS011;8505;49.456;8.164;2023-07-02T04:17:45;8.50;;;4.40;;
16775;SDS011;8505;49.456;8.164;2023-07-02T04:20:12;7.60;;;4.70;;
16775;SDS011;8505;49.456;8.164;2023-07-02T04:22:40;7.80;;;4.10;;
16775;SDS011;8505;49.456;8.164;2023-07-02T04:25:09;7.45;;;4.05;;
16775;SDS011;8505;49.456;8.164;2023-07-02T04:27:49;8.32;;;4.25;;
16775;SDS011;8505;49.456;8.164;2023-07-02T04:30:22;8.40;;;4.30;;
16775;SDS011;8505;49.456;8.164;2023-07-02T04:32:50;9.43;;;4.72;;
16775;SDS011;8505;49.456;8.164;2023-07-02T04:35:18;9.30;;;4.75;;
16775;SDS011;8505;49.456;8.164;2023-07-02T04:37:46;11.05;;;4.53;;
16775;SDS011;8505;49.456;8.164;2023-07-02T04:40:15;9.57;;;4.77;;
16775;SDS011;8505;49.456;8.164;2023-07-02T04:42:43;8.43;;;4.78;;
16775;SDS011;8505;49.456;8.164;2023-07-02T04:45:13;9.53;;;4.97;;
16775;SDS011;8505;49.456;8.164;2023-07-02T04:47:43;11.60;;;5.65;;
16775;SDS011;8505;49.456;8.164;2023-07-02T04:50:11;12.30;;;5.70;;
16775;SDS011;8505;49.456;8.164;2023-07-02T04:52:39;11.98;;;5.60;;
16775;SDS011;8505;49.456;8.164;2023-07-02T04:55:08;14.02;;;6.00;;
16775;SDS011;8505;49.456;8.164;2023-07-02T04:57:37;12.98;;;6.22;;
16775;SDS011;8505;49.456;8.164;2023-07-02T05:00:05;13.73;;;6.40;;
16775;SDS011;8505;49.456;8.164;2023-07-02T05:02:34;14.32;;;6.55;;
16775;SDS011;8505;49.456;8.164;2023-07-02T05:05:02;12.60;;;6.88;;
16775;SDS011;8505;49.456;8.164;2023-07-02T05:07:30;13.75;;;7.13;;
16775;SDS011;8505;49.456;8.164;2023-07-02T05:09:58;14.55;;;7.05;;
16775;SDS011;8505;49.456;8.164;2023-07-02T05:12:26;15.35;;;7.97;;
16775;SDS011;8505;49.456;8.164;2023-07-02T05:14:55;17.70;;;8.05;;
16775;SDS011;8505;49.456;8.164;2023-07-02T05:17:22;15.55;;;8.30;;
16775;SDS011;8505;49.456;8.164;2023-07-02T05:19:50;14.88;;;8.05;;
16775;SDS011;8505;49.456;8.164;2023-07-02T05:22:19;16.13;;;8.15;;
16775;SDS011;8505;49.456;8.164;2023-07-02T05:24:47;17.30;;;7.95;;
16775;SDS011;8505;49.456;8.164;2023-07-02T05:27:15;16.55;;;8.23;;
16775;SDS011;8505;49.456;8.164;2023-07-02T05:29:43;17.65;;;8.73;;
16775;SDS011;8505;49.456;8.164;2023-07-02T05:32:12;17.02;;;8.65;;
16775;SDS011;8505;49.456;8.164;2023-07-02T05:34:40;17.10;;;8.63;;
16775;SDS011;8505;49.456;8.164;2023-07-02T05:37:07;18.20;;;9.45;;
16775;SDS011;8505;49.456;8.164;2023-07-02T05:39:35;21.17;;;9.70;;
16775;SDS011;8505;49.456;8.164;2023-07-02T05:42:03;20.07;;;9.73;;
16775;SDS011;8505;49.456;8.164;2023-07-02T05:44:31;20.50;;;10.05;;
16775;SDS011;8505;49.456;8.164;2023-07-02T05:46:59;19.27;;;9.07;;
16775;SDS011;8505;49.456;8.164;2023-07-02T05:49:28;20.58;;;10.50;;
16775;SDS011;8505;49.456;8.164;2023-07-02T05:51:56;21.40;;;10.10;;
16775;SDS011;8505;49.456;8.164;2023-07-02T05:54:23;18.10;;;10.10;;
16775;SDS011;8505;49.456;8.164;2023-07-02T05:56:51;19.45;;;10.18;;
16775;SDS011;8505;49.456;8.164;2023-07-02T05:59:19;22.10;;;10.70;;
16775;SDS011;8505;49.456;8.164;2023-07-02T06:01:46;22.45;;;10.52;;
16775;SDS011;8505;49.456;8.164;2023-07-02T06:04:14;21.25;;;10.77;;
16775;SDS011;8505;49.456;8.164;2023-07-02T06:06:44;19.27;;;10.15;;
16775;SDS011;8505;49.456;8.164;2023-07-02T06:09:11;19.98;;;10.45;;
16775;SDS011;8505;49.456;8.164;2023-07-02T06:11:39;19.75;;;10.07;;
16775;SDS011;8505;49.456;8.164;2023-07-02T06:14:07;21.77;;;10.60;;
16775;SDS011;8505;49.456;8.164;2023-07-02T06:16:35;19.35;;;10.27;;
16775;SDS011;8505;49.456;8.164;2023-07-02T06:19:03;18.75;;;10.32;;
16775;SDS011;8505;49.456;8.164;2023-07-02T06:21:30;21.30;;;10.88;;
16775;SDS011;8505;49.456;8.164;2023-07-02T06:24:00;19.55;;;10.15;;
16775;SDS011;8505;49.456;8.164;2023-07-02T06:26:28;22.60;;;10.50;;
16775;SDS011;8505;49.456;8.164;2023-07-02T06:28:57;18.33;;;9.80;;
16775;SDS011;8505;49.456;8.164;2023-07-02T06:31:25;18.95;;;10.20;;
16775;SDS011;8505;49.456;8.164;2023-07-02T06:33:53;20.10;;;10.43;;
16775;SDS011;8505;49.456;8.164;2023-07-02T06:36:21;21.45;;;10.45;;
16775;SDS011;8505;49.456;8.164;2023-07-02T06:38:48;18.08;;;9.63;;
16775;SDS011;8505;49.456;8.164;2023-07-02T06:41:21;19.33;;;9.97;;
16775;SDS011;8505;49.456;8.164;2023-07-02T06:43:48;18.23;;;9.48;;
16775;SDS011;8505;49.456;8.164;2023-07-02T06:46:16;18.73;;;9.77;;
16775;SDS011;8505;49.456;8.164;2023-07-02T06:48:44;18.10;;;10.23;;
16775;SDS011;8505;49.456;8.164;2023-07-02T06:51:11;19.60;;;10.23;;
16775;SDS011;8505;49.456;8.164;2023-07-02T06:53:41;20.67;;;10.20;;
16775;SDS011;8505;49.456;8.164;2023-07-02T06:56:09;20.20;;;10.18;;
16775;SDS011;8505;49.456;8.164;2023-07-02T06:58:41;19.55;;;10.20;;
16775;SDS011;8505;49.456;8.164;2023-07-02T07:01:09;22.02;;;11.05;;
16775;SDS011;8505;49.456;8.164;2023-07-02T07:03:37;23.57;;;11.20;;
16775;SDS011;8505;49.456;8.164;2023-07-02T07:06:05;23.35;;;11.85;;
16775;SDS011;8505;49.456;8.164;2023-07-02T07:08:32;21.50;;;12.30;;
16775;SDS011;8505;49.456;8.164;2023-07-02T07:11:00;22.85;;;12.50;;
16775;SDS011;8505;49.456;8.164;2023-07-02T07:13:28;24.13;;;12.38;;
16775;SDS011;8505;49.456;8.164;2023-07-02T07:15:57;26.58;;;13.43;;
16775;SDS011;8505;49.456;8.164;2023-07-02T07:18:25;23.50;;;12.95;;
16775;SDS011;8505;49.456;8.164;2023-07-02T07:20:56;24.75;;;13.40;;
16775;SDS011;8505;49.456;8.164;2023-07-02T07:23:24;28.15;;;13.43;;
16775;SDS011;8505;49.456;8.164;2023-07-02T07:25:52;27.80;;;13.30;;
16775;SDS011;8505;49.456;8.164;2023-07-02T07:28:20;25.85;;;13.20;;
16775;SDS011;8505;49.456;8.164;2023-07-02T07:30:48;24.63;;;12.95;;
16775;SDS011;8505;49.456;8.164;2023-07-02T07:33:17;26.83;;;13.85;;
16775;SDS011;8505;49.456;8.164;2023-07-02T07:35:48;28.33;;;13.70;;
16775;SDS011;8505;49.456;8.164;2023-07-02T07:38:15;28.95;;;13.98;;
16775;SDS011;8505;49.456;8.164;2023-07-02T07:40:44;27.75;;;14.85;;
16775;SDS011;8505;49.456;8.164;2023-07-02T07:43:12;25.23;;;12.95;;
16775;SDS011;8505;49.456;8.164;2023-07-02T07:45:40;26.90;;;13.75;;
16775;SDS011;8505;49.456;8.164;2023-07-02T07:48:07;25.90;;;12.70;;
16775;SDS011;8505;49.456;8.164;2023-07-02T07:50:36;27.48;;;13.45;;
16775;SDS011;8505;49.456;8.164;2023-07-02T07:53:04;28.25;;;14.00;;
16775;SDS011;8505;49.456;8.164;2023-07-02T07:55:32;25.27;;;13.45;;
16775;SDS011;8505;49.456;8.164;2023-07-02T07:58:00;26.80;;;13.03;;
16775;SDS011;8505;49.456;8.164;2023-07-02T08:00:28;26.35;;;13.40;;
16775;SDS011;8505;49.456;8.164;2023-07-02T08:02:56;26.90;;;14.43;;
16775;SDS011;8505;49.456;8.164;2023-07-02T08:05:23;27.77;;;15.00;;
16775;SDS011;8505;49.456;8.164;2023-07-02T08:07:53;28.05;;;15.23;;
16775;SDS011;8505;49.456;8.164;2023-07-02T08:10:20;27.50;;;14.63;;
16775;SDS011;8505;49.456;8.164;2023-07-02T08:12:50;28.27;;;15.10;;
16775;SDS011;8505;49.456;8.164;2023-07-02T08:15:18;28.15;;;15.27;;
16775;SDS011;8505;49.456;8.164;2023-07-02T08:17:46;28.20;;;14.52;;
16775;SDS011;8505;49.456;8.164;2023-07-02T08:20:14;29.17;;;15.80;;
16775;SDS011;8505;49.456;8.164;2023-07-02T08:22:43;27.35;;;15.13;;
16775;SDS011;8505;49.456;8.164;2023-07-02T08:25:12;25.92;;;15.07;;
16775;SDS011;8505;49.456;8.164;2023-07-02T08:27:40;26.33;;;14.63;;
16775;SDS011;8505;49.456;8.164;2023-07-02T08:30:08;29.70;;;15.55;;
16775;SDS011;8505;49.456;8.164;2023-07-02T08:32:36;27.80;;;15.75;;
16775;SDS011;8505;49.456;8.164;2023-07-02T08:35:04;27.33;;;14.97;;
16775;SDS011;8505;49.456;8.164;2023-07-02T08:37:32;27.63;;;15.30;;
16775;SDS011;8505;49.456;8.164;2023-07-02T08:39:59;26.23;;;15.37;;
16775;SDS011;8505;49.456;8.164;2023-07-02T08:42:28;29.10;;;14.82;;
16775;SDS011;8505;49.456;8.164;2023-07-02T08:44:57;26.77;;;14.90;;
16775;SDS011;8505;49.456;8.164;2023-07-02T08:47:27;26.45;;;15.05;;
16775;SDS011;8505;49.456;8.164;2023-07-02T08:49:54;27.00;;;15.05;;
16775;SDS011;8505;49.456;8.164;2023-07-02T08:52:22;25.80;;;14.25;;
16775;SDS011;8505;49.456;8.164;2023-07-02T08:54:50;24.05;;;14.43;;
16775;SDS011;8505;49.456;8.164;2023-07-02T08:57:18;26.67;;;14.20;;
16775;SDS011;8505;49.456;8.164;2023-07-02T08:59:48;24.58;;;13.25;;
16775;SDS011;8505;49.456;8.164;2023-07-02T09:02:18;26.08;;;13.73;;
16775;SDS011;8505;49.456;8.164;2023-07-02T09:04:46;24.95;;;14.35;;
16775;SDS011;8505;49.456;8.164;2023-07-02T09:07:13;23.55;;;13.75;;
16775;SDS011;8505;49.456;8.164;2023-07-02T09:09:44;25.70;;;13.52;;
16775;SDS011;8505;49.456;8.164;2023-07-02T09:12:23;23.88;;;13.60;;
16775;SDS011;8505;49.456;8.164;2023-07-02T09:14:56;25.00;;;14.27;;
16775;SDS011;8505;49.456;8.164;2023-07-02T09:17:28;25.90;;;14.45;;
16775;SDS011;8505;49.456;8.164;2023-07-02T09:19:57;24.58;;;14.63;;
16775;SDS011;8505;49.456;8.164;2023-07-02T09:22:26;25.00;;;14.80;;
16775;SDS011;8505;49.456;8.164;2023-07-02T09:24:55;27.42;;;14.50;;
16775;SDS011;8505;49.456;8.164;2023-07-02T09:27:33;26.35;;;14.43;;
16775;SDS011;8505;49.456;8.164;2023-07-02T09:30:07;26.45;;;14.65;;
16775;SDS011;8505;49.456;8.164;2023-07-02T09:32:36;28.85;;;14.80;;
16775;SDS011;8505;49.456;8.164;2023-07-02T09:35:04;29.73;;;15.52;;
16775;SDS011;8505;49.456;8.164;2023-07-02T09:37:33;27.40;;;14.75;;
16775;SDS011;8505;49.456;8.164;2023-07-02T09:40:00;31.23;;;15.95;;
16775;SDS011;8505;49.456;8.164;2023-07-02T09:42:33;29.63;;;15.47;;
16775;SDS011;8505;49.456;8.164;2023-07-02T09:45:02;28.58;;;15.82;;
16775;SDS011;8505;49.456;8.164;2023-07-02T09:47:31;27.98;;;15.88;;
16775;SDS011;8505;49.456;8.164;2023-07-02T09:50:02;28.05;;;15.52;;
16775;SDS011;8505;49.456;8.164;2023-07-02T09:52:32;28.90;;;15.88;;
16775;SDS011;8505;49.456;8.164;2023-07-02T09:55:01;30.48;;;16.40;;
16775;SDS011;8505;49.456;8.164;2023-07-02T09:57:31;30.83;;;15.82;;
16775;SDS011;8505;49.456;8.164;2023-07-02T10:00:01;30.65;;;16.40;;
16775;SDS011;8505;49.456;8.164;2023-07-02T10:02:32;29.30;;;16.45;;
16775;SDS011;8505;49.456;8.164;2023-07-02T10:05:00;28.53;;;15.70;;
16775;SDS011;8505;49.456;8.164;2023-07-02T10:07:29;30.00;;;16.33;;
16775;SDS011;8505;49.456;8.164;2023-07-02T10:09:58;28.63;;;15.77;;
16775;SDS011;8505;49.456;8.164;2023-07-02T10:12:27;27.80;;;15.50;;
16775;SDS011;8505;49.456;8.164;2023-07-02T10:14:56;27.73;;;15.57;;
16775;SDS011;8505;49.456;8.164;2023-07-02T10:17:25;27.87;;;15.77;;
16775;SDS011;8505;49.456;8.164;2023-07-02T10:19:57;29.40;;;16.20;;
16775;SDS011;8505;49.456;8.164;2023-07-02T10:22:25;28.00;;;16.50;;
16775;SDS011;8505;49.456;8.164;2023-07-02T10:24:54;30.20;;;16.67;;
16775;SDS011;8505;49.456;8.164;2023-07-02T10:27:32;31.75;;;16.67;;
16775;SDS011;8505;49.456;8.164;2023-07-02T10:30:02;31.02;;;16.90;;
16775;SDS011;8505;49.456;8.164;2023-07-02T10:32:32;27.60;;;16.05;;
16775;SDS011;8505;49.456;8.164;2023-07-02T10:35:02;29.58;;;16.02;;
16775;SDS011;8505;49.456;8.164;2023-07-02T10:37:40;28.83;;;16.80;;
16775;SDS011;8505;49.456;8.164;2023-07-02T10:40:08;25.98;;;15.68;;
16775;SDS011;8505;49.456;8.164;2023-07-02T10:42:44;26.85;;;14.80;;
16775;SDS011;8505;49.456;8.164;2023-07-02T10:45:13;27.53;;;15.00;;
16775;SDS011;8505;49.456;8.164;2023-07-02T10:47:41;28.23;;;15.50;;
16775;SDS011;8505;49.456;8.164;2023-07-02T10:50:20;27.83;;;15.40;;
16775;SDS011;8505;49.456;8.164;2023-07-02T10:52:49;29.33;;;16.02;;
16775;SDS011;8505;49.456;8.164;2023-07-02T10:55:17;27.90;;;15.20;;
16775;SDS011;8505;49.456;8.164;2023-07-02T10:57:46;28.63;;;15.95;;
16775;SDS011;8505;49.456;8.164;2023-07-02T11:00:14;29.45;;;16.17;;
16775;SDS011;8505;49.456;8.164;2023-07-02T11:02:42;31.45;;;16.10;;
16775;SDS011;8505;49.456;8.164;2023-07-02T11:05:11;28.77;;;14.93;;
16775;SDS011;8505;49.456;8.164;2023-07-02T11:07:41;25.75;;;14.13;;
16775;SDS011;8505;49.456;8.164;2023-07-02T11:10:10;23.77;;;13.73;;
16775;SDS011;8505;49.456;8.164;2023-07-02T11:12:44;25.93;;;14.43;;
16775;SDS011;8505;49.456;8.164;2023-07-02T11:15:12;24.80;;;14.32;;
16775;SDS011;8505;49.456;8.164;2023-07-02T11:17:41;28.17;;;14.38;;
16775;SDS011;8505;49.456;8.164;2023-07-02T11:20:09;23.55;;;13.95;;
16775;SDS011;8505;49.456;8.164;2023-07-02T11:22:38;23.52;;;13.75;;
16775;SDS011;8505;49.456;8.164;2023-07-02T11:25:12;24.23;;;14.00;;
16775;SDS011;8505;49.456;8.164;2023-07-02T11:27:41;26.10;;;14.43;;
16775;SDS011;8505;49.456;8.164;2023-07-02T11:30:09;24.02;;;14.27;;
16775;SDS011;8505;49.456;8.164;2023-07-02T11:32:48;26.27;;;14.33;;
16775;SDS011;8505;49.456;8.164;2023-07-02T11:35:18;26.35;;;14.68;;
16775;SDS011;8505;49.456;8.164;2023-07-02T11:37:47;26.00;;;14.45;;
16775;SDS011;8505;49.456;8.164;2023-07-02T11:40:17;27.20;;;14.73;;
16775;SDS011;8505;49.456;8.164;2023-07-02T11:42:45;26.73;;;14.50;;
16775;SDS011;8505;49.456;8.164;2023-07-02T11:45:13;26.60;;;14.50;;
16775;SDS011;8505;49.456;8.164;2023-07-02T11:47:41;24.08;;;14.82;;
16775;SDS011;8505;49.456;8.164;2023-07-02T11:50:09;23.70;;;14.35;;
16775;SDS011;8505;49.456;8.164;2023-07-02T11:52:53;27.25;;;15.07;;
16775;SDS011;8505;49.456;8.164;2023-07-02T11:55:21;25.50;;;14.63;;
16775;SDS011;8505;49.456;8.164;2023-07-02T11:57:49;25.93;;;15.00;;
16775;SDS011;8505;49.456;8.164;2023-07-02T12:00:16;25.65;;;14.77;;
16775;SDS011;8505;49.456;8.164;2023-07-02T12:02:44;25.30;;;14.60;;
16775;SDS011;8505;49.456;8.164;2023-07-02T12:05:12;23.80;;;13.98;;
16775;SDS011;8505;49.456;8.164;2023-07-02T12:07:40;25.30;;;14.10;;
16775;SDS011;8505;49.456;8.164;2023-07-02T12:10:09;26.17;;;13.45;;
16775;SDS011;8505;49.456;8.164;2023-07-02T12:12:37;26.33;;;14.65;;
16775;SDS011;8505;49.456;8.164;2023-07-02T12:15:05;25.70;;;14.40;;
16775;SDS011;8505;49.456;8.164;2023-07-02T12:17:33;24.53;;;14.40;;
16775;SDS011;8505;49.456;8.164;2023-07-02T12:20:01;25.52;;;14.77;;
16775;SDS011;8505;49.456;8.164;2023-07-02T12:22:29;24.73;;;14.47;;
16775;SDS011;8505;49.456;8.164;2023-07-02T12:24:57;26.33;;;14.98;;
16775;SDS011;8505;49.456;8.164;2023-07-02T12:27:26;25.17;;;14.70;;
16775;SDS011;8505;49.456;8.164;2023-07-02T12:29:53;25.58;;;14.90;;
16775;SDS011;8505;49.456;8.164;2023-07-02T12:32:23;26.58;;;14.90;;
16775;SDS011;8505;49.456;8.164;2023-07-02T12:34:51;24.83;;;15.13;;
16775;SDS011;8505;49.456;8.164;2023-07-02T12:37:18;24.40;;;14.05;;
16775;SDS011;8505;49.456;8.164;2023-07-02T12:39:47;24.40;;;13.98;;
16775;SDS011;8505;49.456;8.164;2023-07-02T12:42:15;24.65;;;14.90;;
16775;SDS011;8505;49.456;8.164;2023-07-02T12:44:44;24.93;;;14.80;;
16775;SDS011;8505;49.456;8.164;2023-07-02T12:47:11;27.75;;;15.25;;
16775;SDS011;8505;49.456;8.164;2023-07-02T12:49:39;26.77;;;15.27;;
16775;SDS011;8505;49.456;8.164;2023-07-02T12:52:07;27.67;;;15.40;;
16775;SDS011;8505;49.456;8.164;2023-07-02T12:54:34;26.10;;;14.82;;
16775;SDS011;8505;49.456;8.164;2023-07-02T12:57:02;24.08;;;13.98;;
16775;SDS011;8505;49.456;8.164;2023-07-02T12:59:30;25.17;;;14.98;;
16775;SDS011;8505;49.456;8.164;2023-07-02T13:01:59;26.40;;;14.85;;
16775;SDS011;8505;49.456;8.164;2023-07-02T13:04:27;28.23;;;15.10;;
16775;SDS011;8505;49.456;8.164;2023-07-02T13:06:55;25.90;;;14.88;;
16775;SDS011;8505;49.456;8.164;2023-07-02T13:09:23;29.08;;;15.50;;
16775;SDS011;8505;49.456;8.164;2023-07-02T13:11:51;24.90;;;14.68;;
16775;SDS011;8505;49.456;8.164;2023-07-02T13:14:18;25.27;;;13.40;;
16775;SDS011;8505;49.456;8.164;2023-07-02T13:16:46;25.42;;;14.35;;
16775;SDS011;8505;49.456;8.164;2023-07-02T13:19:15;25.50;;;14.30;;
16775;SDS011;8505;49.456;8.164;2023-07-02T13:21:43;24.52;;;14.75;;
16775;SDS011;8505;49.456;8.164;2023-07-02T13:24:11;24.30;;;14.77;;
16775;SDS011;8505;49.456;8.164;2023-07-02T13:26:39;25.90;;;14.40;;
16775;SDS011;8505;49.456;8.164;2023-07-02T13:29:10;24.73;;;14.80;;
16775;SDS011;8505;49.456;8.164;2023-07-02T13:31:38;25.25;;;14.63;;
16775;SDS011;8505;49.456;8.164;2023-07-02T13:34:06;26.52;;;14.93;;
16775;SDS011;8505;49.456;8.164;2023-07-02T13:36:35;24.70;;;14.75;;
16775;SDS011;8505;49.456;8.164;2023-07-02T13:39:03;24.63;;;14.27;;
16775;SDS011;8505;49.456;8.164;2023-07-02T13:41:31;25.25;;;14.15;;
16775;SDS011;8505;49.456;8.164;2023-07-02T13:44:00;24.73;;;14.25;;
16775;SDS011;8505;49.456;8.164;2023-07-02T13:46:28;24.73;;;14.40;;
16775;SDS011;8505;49.456;8.164;2023-07-02T13:48:56;25.67;;;14.63;;
16775;SDS011;8505;49.456;8.164;2023-07-02T13:51:23;25.73;;;14.68;;
16775;SDS011;8505;49.456;8.164;2023-07-02T13:53:52;24.95;;;14.38;;
16775;SDS011;8505;49.456;8.164;2023-07-02T13:56:20;25.13;;;14.75;;
16775;SDS011;8505;49.456;8.164;2023-07-02T13:59:02;26.10;;;15.02;;
16775;SDS011;8505;49.456;8.164;2023-07-02T14:01:31;25.27;;;14.73;;
16775;SDS011;8505;49.456;8.164;2023-07-02T14:04:00;28.00;;;15.13;;
16775;SDS011;8505;49.456;8.164;2023-07-02T14:06:28;26.73;;;14.77;;
16775;SDS011;8505;49.456;8.164;2023-07-02T14:08:56;27.07;;;14.90;;
16775;SDS011;8505;49.456;8.164;2023-07-02T14:11:24;25.67;;;14.98;;
16775;SDS011;8505;49.456;8.164;2023-07-02T14:13:54;28.02;;;14.50;;
16775;SDS011;8505;49.456;8.164;2023-07-02T14:16:23;26.50;;;14.35;;
16775;SDS011;8505;49.456;8.164;2023-07-02T14:18:52;26.90;;;15.07;;
16775;SDS011;8505;49.456;8.164;2023-07-02T14:21:19;28.30;;;14.60;;
16775;SDS011;8505;49.456;8.164;2023-07-02T14:23:47;25.83;;;14.63;;
16775;SDS011;8505;49.456;8.164;2023-07-02T14:26:15;22.37;;;13.67;;
16775;SDS011;8505;49.456;8.164;2023-07-02T14:28:43;25.70;;;14.55;;
16775;SDS011;8505;49.456;8.164;2023-07-02T14:31:11;26.10;;;14.73;;
16775;SDS011;8505;49.456;8.164;2023-07-02T14:33:40;25.50;;;14.40;;
16775;SDS011;8505;49.456;8.164;2023-07-02T14:36:08;26.58;;;14.85;;
16775;SDS011;8505;49.456;8.164;2023-07-02T14:38:36;24.73;;;14.38;;
16775;SDS011;8505;49.456;8.164;2023-07-02T14:41:03;25.60;;;14.40;;
16775;SDS011;8505;49.456;8.164;2023-07-02T14:43:31;26.90;;;14.48;;
16775;SDS011;8505;49.456;8.164;2023-07-02T14:46:00;25.42;;;14.55;;
16775;SDS011;8505;49.456;8.164;2023-07-02T14:48:29;21.85;;;14.05;;
16775;SDS011;8505;49.456;8.164;2023-07-02T14:50:59;25.77;;;14.73;;